sensor_id;sensor_type;location;lat;lon;timestamp;pressure;altitude;pressure_sealevel;temperature;humidity
7105;BME280;3594;42.152;24.714;2023-01-28T00:01:59;-23910.97;;;3.39;100.00
7105;BME280;3594;42.152;24.714;2023-01-28T00:04:25;-23920.25;;;3.72;100.00
7105;BME280;3594;42.152;24.714;2023-01-28T00:06:50;-23912.97;;;3.46;100.00
7105;BME280;3594;42.152;24.714;2023-01-28T00:09:15;-23920.25;;;3.72;100.00
7105;BME280;3594;42.152;24.714;2023-01-28T00:11:41;-23913.84;;;3.49;100.00
7105;BME280;3594;42.152;24.714;2023-01-28T00:14:06;-23909.13;;;3.33;100.00
7105;BME280;3594;42.152;24.714;2023-01-28T00:16:32;-23920.97;;;3.75;100.00
7105;BME280;3594;42.152;24.714;2023-01-28T00:18:57;-23908.28;;;3.30;100.00
7105;BME280;3594;42.152;24.714;2023-01-28T00:21:23;-23920.09;;;3.72;100.00
7105;BME280;3594;42.152;24.714;2023-01-28T00:23:53;-23907.28;;;3.26;100.00
7105;BME280;3594;42.152;24.714;2023-01-28T00:26:19;-23920.09;;;3.72;100.00
7105;BME280;3594;42.152;24.714;2023-01-28T00:28:44;-23915.25;;;3.54;100.00
7105;BME280;3594;42.152;24.714;2023-01-28T00:31:19;-23908.56;;;3.31;100.00
7105;BME280;3594;42.152;24.714;2023-01-28T00:33:46;-23913.13;;;3.47;100.00
7105;BME280;3594;42.152;24.714;2023-01-28T00:36:13;-23906.28;;;3.23;100.00
7105;BME280;3594;42.152;24.714;2023-01-28T00:38:39;-23916.69;;;3.60;100.00
7105;BME280;3594;42.152;24.714;2023-01-28T00:41:15;-23912.41;;;3.44;100.00
7105;BME280;3594;42.152;24.714;2023-01-28T00:43:41;-23907.13;;;3.26;100.00
7105;BME280;3594;42.152;24.714;2023-01-28T00:46:09;-23905.41;;;3.20;100.00
7105;BME280;3594;42.152;24.714;2023-01-28T00:48:37;-23910.41;;;3.37;100.00
7105;BME280;3594;42.152;24.714;2023-01-28T00:51:04;-23904.72;;;3.17;100.00
7105;BME280;3594;42.152;24.714;2023-01-28T00:53:30;-23904.00;;;3.15;100.00
7105;BME280;3594;42.152;24.714;2023-01-28T00:55:56;-23909.56;;;3.34;100.00
7105;BME280;3594;42.152;24.714;2023-01-28T00:58:21;-23908.00;;;3.29;100.00
7105;BME280;3594;42.152;24.714;2023-01-28T01:00:49;-23914.69;;;3.52;100.00
7105;BME280;3594;42.152;24.714;2023-01-28T01:03:16;-23907.28;;;3.26;100.00
7105;BME280;3594;42.152;24.714;2023-01-28T01:05:41;-23917.13;;;3.61;100.00
7105;BME280;3594;42.152;24.714;2023-01-28T01:08:07;-23911.41;;;3.41;100.00
7105;BME280;3594;42.152;24.714;2023-01-28T01:10:32;-23911.28;;;3.40;100.00
7105;BME280;3594;42.152;24.714;2023-01-28T01:12:59;-23915.81;;;3.56;100.00
7105;BME280;3594;42.152;24.714;2023-01-28T01:15:25;-23905.28;;;3.19;100.00
7105;BME280;3594;42.152;24.714;2023-01-28T01:17:51;-23911.28;;;3.40;100.00
7105;BME280;3594;42.152;24.714;2023-01-28T01:20:22;-23912.97;;;3.46;100.00
7105;BME280;3594;42.152;24.714;2023-01-28T01:22:48;-23912.69;;;3.45;100.00
7105;BME280;3594;42.152;24.714;2023-01-28T01:25:15;-23916.13;;;3.58;100.00
7105;BME280;3594;42.152;24.714;2023-01-28T01:27:41;-23917.53;;;3.63;100.00
7105;BME280;3594;42.152;24.714;2023-01-28T01:30:08;-23914.84;;;3.53;100.00
7105;BME280;3594;42.152;24.714;2023-01-28T01:32:34;-23911.97;;;3.43;100.00
7105;BME280;3594;42.152;24.714;2023-01-28T01:35:01;-23916.41;;;3.59;100.00
7105;BME280;3594;42.152;24.714;2023-01-28T01:37:27;-23917.53;;;3.63;100.00
7105;BME280;3594;42.152;24.714;2023-01-28T01:39:52;-23916.53;;;3.59;100.00
7105;BME280;3594;42.152;24.714;2023-01-28T01:42:18;-23917.41;;;3.62;100.00
7105;BME280;3594;42.152;24.714;2023-01-28T01:47:13;-23906.13;;;3.22;100.00
7105;BME280;3594;42.152;24.714;2023-01-28T01:49:39;-23915.81;;;3.56;100.00
7105;BME280;3594;42.152;24.714;2023-01-28T01:52:11;-23905.84;;;3.21;100.00
7105;BME280;3594;42.152;24.714;2023-01-28T01:54:38;-23914.53;;;3.52;100.00
7105;BME280;3594;42.152;24.714;2023-01-28T01:57:08;-23915.97;;;3.57;100.00
7105;BME280;3594;42.152;24.714;2023-01-28T01:59:38;-23918.13;;;3.65;100.00
7105;BME280;3594;42.152;24.714;2023-01-28T02:02:06;-23918.13;;;3.65;100.00
7105;BME280;3594;42.152;24.714;2023-01-28T02:04:41;-23916.97;;;3.61;100.00
7105;BME280;3594;42.152;24.714;2023-01-28T02:07:10;-23910.00;;;3.36;100.00
7105;BME280;3594;42.152;24.714;2023-01-28T02:09:36;-23921.69;;;3.77;100.00
7105;BME280;3594;42.152;24.714;2023-01-28T02:12:09;-23921.69;;;3.77;100.00
7105;BME280;3594;42.152;24.714;2023-01-28T02:14:41;-23918.97;;;3.68;100.00
7105;BME280;3594;42.152;24.714;2023-01-28T02:17:08;-23915.25;;;3.54;100.00
7105;BME280;3594;42.152;24.714;2023-01-28T02:19:45;-23917.81;;;3.64;100.00
7105;BME280;3594;42.152;24.714;2023-01-28T02:22:44;-23921.97;;;3.78;100.00
7105;BME280;3594;42.152;24.714;2023-01-28T02:30:50;-23918.53;;;3.66;100.00
7105;BME280;3594;42.152;24.714;2023-01-28T02:33:36;-23918.69;;;3.67;100.00
7105;BME280;3594;42.152;24.714;2023-01-28T02:36:23;-23917.69;;;3.63;100.00
7105;BME280;3594;42.152;24.714;2023-01-28T02:38:53;-23923.53;;;3.84;100.00
7105;BME280;3594;42.152;24.714;2023-01-28T02:41:29;-23922.25;;;3.79;100.00
7105;BME280;3594;42.152;24.714;2023-01-28T02:43:55;-23915.25;;;3.54;100.00
7105;BME280;3594;42.152;24.714;2023-01-28T02:57:37;-23919.53;;;3.70;100.00
7105;BME280;3594;42.152;24.714;2023-01-28T03:00:26;-23921.25;;;3.76;100.00
7105;BME280;3594;42.152;24.714;2023-01-28T03:05:44;-23913.69;;;3.49;100.00
7105;BME280;3594;42.152;24.714;2023-01-28T03:09:02;-23910.41;;;3.37;100.00
7105;BME280;3594;42.152;24.714;2023-01-28T03:11:41;-23919.41;;;3.69;100.00
7105;BME280;3594;42.152;24.714;2023-01-28T03:14:27;-23919.81;;;3.71;100.00
7105;BME280;3594;42.152;24.714;2023-01-28T03:17:20;-23908.13;;;3.29;100.00
7105;BME280;3594;42.152;24.714;2023-01-28T03:20:07;-23916.53;;;3.59;100.00
7105;BME280;3594;42.152;24.714;2023-01-28T03:22:53;-23918.25;;;3.65;100.00
7105;BME280;3594;42.152;24.714;2023-01-28T03:25:42;-23912.84;;;3.46;100.00
7105;BME280;3594;42.152;24.714;2023-01-28T03:28:27;-23908.28;;;3.30;100.00
7105;BME280;3594;42.152;24.714;2023-01-28T03:31:14;-23917.81;;;3.64;100.00
7105;BME280;3594;42.152;24.714;2023-01-28T03:34:01;-23916.53;;;3.59;100.00
7105;BME280;3594;42.152;24.714;2023-01-28T03:36:46;-23907.28;;;3.26;100.00
7105;BME280;3594;42.152;24.714;2023-01-28T03:39:13;-23916.25;;;3.58;100.00
7105;BME280;3594;42.152;24.714;2023-01-28T03:41:40;-23918.41;;;3.66;100.00
7105;BME280;3594;42.152;24.714;2023-01-28T03:44:05;-23905.72;;;3.21;100.00
7105;BME280;3594;42.152;24.714;2023-01-28T03:46:50;-23906.28;;;3.23;100.00
7105;BME280;3594;42.152;24.714;2023-01-28T03:49:16;-23905.56;;;3.20;100.00
7105;BME280;3594;42.152;24.714;2023-01-28T03:51:41;-23907.41;;;3.27;100.00
7105;BME280;3594;42.152;24.714;2023-01-28T03:54:08;-23911.97;;;3.43;100.00
7105;BME280;3594;42.152;24.714;2023-01-28T03:56:33;-23905.41;;;3.20;100.00
7105;BME280;3594;42.152;24.714;2023-01-28T03:59:03;-23907.41;;;3.27;100.00
7105;BME280;3594;42.152;24.714;2023-01-28T04:01:28;-23907.00;;;3.25;100.00
7105;BME280;3594;42.152;24.714;2023-01-28T04:03:54;-23906.13;;;3.22;100.00
7105;BME280;3594;42.152;24.714;2023-01-28T04:06:19;-23911.28;;;3.40;100.00
7105;BME280;3594;42.152;24.714;2023-01-28T04:08:44;-23917.97;;;3.64;100.00
7105;BME280;3594;42.152;24.714;2023-01-28T04:11:13;-23912.97;;;3.46;100.00
7105;BME280;3594;42.152;24.714;2023-01-28T04:13:44;-23913.84;;;3.49;100.00
7105;BME280;3594;42.152;24.714;2023-01-28T04:16:11;-23911.84;;;3.42;100.00
7105;BME280;3594;42.152;24.714;2023-01-28T04:18:36;-23901.16;;;3.04;100.00
7105;BME280;3594;42.152;24.714;2023-01-28T04:21:02;-23908.00;;;3.29;100.00
7105;BME280;3594;42.152;24.714;2023-01-28T04:23:27;-23902.16;;;3.08;100.00
7105;BME280;3594;42.152;24.714;2023-01-28T04:25:54;-23903.28;;;3.12;100.00
7105;BME280;3594;42.152;24.714;2023-01-28T04:28:20;-23905.56;;;3.20;100.00
7105;BME280;3594;42.152;24.714;2023-01-28T04:30:46;-23905.00;;;3.18;100.00
7105;BME280;3594;42.152;24.714;2023-01-28T04:33:11;-23902.00;;;3.07;100.00
7105;BME280;3594;42.152;24.714;2023-01-28T04:35:37;-23909.56;;;3.34;100.00
7105;BME280;3594;42.152;24.714;2023-01-28T04:38:02;-23902.16;;;3.08;100.00
7105;BME280;3594;42.152;24.714;2023-01-28T04:40:28;-23897.00;;;2.90;100.00
7105;BME280;3594;42.152;24.714;2023-01-28T04:42:57;-23897.16;;;2.90;100.00
7105;BME280;3594;42.152;24.714;2023-01-28T04:45:23;-23897.00;;;2.90;100.00
7105;BME280;3594;42.152;24.714;2023-01-28T04:47:48;-23903.56;;;3.13;100.00
7105;BME280;3594;42.152;24.714;2023-01-28T04:50:14;-23893.59;;;2.78;100.00
7105;BME280;3594;42.152;24.714;2023-01-28T04:52:40;-23893.88;;;2.79;100.00
7105;BME280;3594;42.152;24.714;2023-01-28T04:55:05;-23902.72;;;3.10;100.00
7105;BME280;3594;42.152;24.714;2023-01-28T04:57:31;-23895.00;;;2.83;100.00
7105;BME280;3594;42.152;24.714;2023-01-28T04:59:57;-23890.72;;;2.67;100.00
7105;BME280;3594;42.152;24.714;2023-01-28T05:02:22;-23889.03;;;2.61;100.00
7105;BME280;3594;42.152;24.714;2023-01-28T05:04:47;-23890.44;;;2.66;100.00
7105;BME280;3594;42.152;24.714;2023-01-28T05:07:13;-23894.59;;;2.81;100.00
7105;BME280;3594;42.152;24.714;2023-01-28T05:09:38;-23891.59;;;2.71;100.00
7105;BME280;3594;42.152;24.714;2023-01-28T05:12:04;-23897.00;;;2.90;100.00
7105;BME280;3594;42.152;24.714;2023-01-28T05:14:29;-23896.28;;;2.87;100.00
7105;BME280;3594;42.152;24.714;2023-01-28T05:16:55;-23901.84;;;3.07;100.00
7105;BME280;3594;42.152;24.714;2023-01-28T05:19:20;-23902.84;;;3.10;100.00
7105;BME280;3594;42.152;24.714;2023-01-28T05:21:46;-23904.28;;;3.16;100.00
7105;BME280;3594;42.152;24.714;2023-01-28T05:24:11;-23903.44;;;3.13;100.00
7105;BME280;3594;42.152;24.714;2023-01-28T05:26:36;-23894.44;;;2.81;100.00
7105;BME280;3594;42.152;24.714;2023-01-28T05:29:03;-23906.56;;;3.24;100.00
7105;BME280;3594;42.152;24.714;2023-01-28T05:31:28;-23907.41;;;3.27;100.00
7105;BME280;3594;42.152;24.714;2023-01-28T05:33:54;-23909.13;;;3.33;100.00
7105;BME280;3594;42.152;24.714;2023-01-28T05:36:20;-23904.72;;;3.17;100.00
7105;BME280;3594;42.152;24.714;2023-01-28T05:38:45;-23905.72;;;3.21;100.00
7105;BME280;3594;42.152;24.714;2023-01-28T05:41:11;-23900.88;;;3.03;100.00
7105;BME280;3594;42.152;24.714;2023-01-28T05:43:37;-23899.88;;;3.00;100.00
7105;BME280;3594;42.152;24.714;2023-01-28T05:46:03;-23908.41;;;3.30;100.00
7105;BME280;3594;42.152;24.714;2023-01-28T05:48:28;-23908.00;;;3.29;100.00
7105;BME280;3594;42.152;24.714;2023-01-28T05:50:54;-23903.00;;;3.11;100.00
7105;BME280;3594;42.152;24.714;2023-01-28T05:53:20;-23912.84;;;3.46;100.00
7105;BME280;3594;42.152;24.714;2023-01-28T05:55:49;-23915.25;;;3.54;100.00
7105;BME280;3594;42.152;24.714;2023-01-28T05:58:15;-23903.44;;;3.13;100.00
7105;BME280;3594;42.152;24.714;2023-01-28T06:00:40;-23905.72;;;3.21;100.00
7105;BME280;3594;42.152;24.714;2023-01-28T06:03:06;-23905.41;;;3.20;100.00
7105;BME280;3594;42.152;24.714;2023-01-28T06:05:31;-23914.97;;;3.53;100.00
7105;BME280;3594;42.152;24.714;2023-01-28T06:07:57;-23905.56;;;3.20;100.00
7105;BME280;3594;42.152;24.714;2023-01-28T06:10:22;-23915.25;;;3.54;100.00
7105;BME280;3594;42.152;24.714;2023-01-28T06:12:48;-23917.53;;;3.63;100.00
7105;BME280;3594;42.152;24.714;2023-01-28T06:15:13;-23917.25;;;3.62;100.00
7105;BME280;3594;42.152;24.714;2023-01-28T06:17:39;-23910.69;;;3.38;100.00
7105;BME280;3594;42.152;24.714;2023-01-28T06:20:04;-23918.41;;;3.66;100.00
7105;BME280;3594;42.152;24.714;2023-01-28T06:22:30;-23917.81;;;3.64;100.00
7105;BME280;3594;42.152;24.714;2023-01-28T06:24:55;-23919.09;;;3.68;100.00
7105;BME280;3594;42.152;24.714;2023-01-28T06:27:21;-23921.81;;;3.78;100.00
7105;BME280;3594;42.152;24.714;2023-01-28T06:29:46;-23923.38;;;3.83;100.00
7105;BME280;3594;42.152;24.714;2023-01-28T06:32:12;-23912.56;;;3.45;100.00
7105;BME280;3594;42.152;24.714;2023-01-28T06:34:37;-23916.13;;;3.58;100.00
7105;BME280;3594;42.152;24.714;2023-01-28T06:37:03;-23923.66;;;3.84;100.00
7105;BME280;3594;42.152;24.714;2023-01-28T06:39:29;-23919.25;;;3.69;100.00
7105;BME280;3594;42.152;24.714;2023-01-28T06:41:57;-23918.25;;;3.65;100.00
7105;BME280;3594;42.152;24.714;2023-01-28T06:44:22;-23919.25;;;3.69;100.00
7105;BME280;3594;42.152;24.714;2023-01-28T06:46:48;-23912.13;;;3.43;100.00
7105;BME280;3594;42.152;24.714;2023-01-28T06:49:14;-23916.41;;;3.59;100.00
7105;BME280;3594;42.152;24.714;2023-01-28T06:51:39;-23921.53;;;3.77;100.00
7105;BME280;3594;42.152;24.714;2023-01-28T06:54:05;-23925.66;;;3.91;100.00
7105;BME280;3594;42.152;24.714;2023-01-28T06:56:30;-23930.78;;;4.10;100.00
7105;BME280;3594;42.152;24.714;2023-01-28T06:58:56;-23936.06;;;4.28;100.00
7105;BME280;3594;42.152;24.714;2023-01-28T07:01:21;-23931.22;;;4.11;100.00
7105;BME280;3594;42.152;24.714;2023-01-28T07:03:46;-23931.34;;;4.12;100.00
7105;BME280;3594;42.152;24.714;2023-01-28T07:06:12;-23929.09;;;4.04;100.00
7105;BME280;3594;42.152;24.714;2023-01-28T07:08:37;-23939.34;;;4.40;100.00
7105;BME280;3594;42.152;24.714;2023-01-28T07:11:04;-23937.91;;;4.35;100.00
7105;BME280;3594;42.152;24.714;2023-01-28T07:13:29;-23944.88;;;4.60;100.00
7105;BME280;3594;42.152;24.714;2023-01-28T07:15:55;-23945.88;;;4.63;100.00
7105;BME280;3594;42.152;24.714;2023-01-28T07:18:20;-23936.50;;;4.30;100.00
7105;BME280;3594;42.152;24.714;2023-01-28T07:20:46;-23947.44;;;4.69;100.00
7105;BME280;3594;42.152;24.714;2023-01-28T07:23:11;-23941.31;;;4.47;100.00
7105;BME280;3594;42.152;24.714;2023-01-28T07:25:37;-23947.16;;;4.68;100.00
7105;BME280;3594;42.152;24.714;2023-01-28T07:28:02;-23929.50;;;4.05;100.00
7105;BME280;3594;42.152;24.714;2023-01-28T07:30:28;-23930.38;;;4.08;100.00
7105;BME280;3594;42.152;24.714;2023-01-28T07:32:57;-23947.03;;;4.67;100.00
7105;BME280;3594;42.152;24.714;2023-01-28T07:35:24;-23945.03;;;4.60;100.00
7105;BME280;3594;42.152;24.714;2023-01-28T07:37:51;-23943.47;;;4.55;100.00
7105;BME280;3594;42.152;24.714;2023-01-28T07:40:17;-23936.91;;;4.31;100.00
7105;BME280;3594;42.152;24.714;2023-01-28T07:42:43;-23941.47;;;4.48;100.00
7105;BME280;3594;42.152;24.714;2023-01-28T07:45:09;-23948.31;;;4.72;100.00
7105;BME280;3594;42.152;24.714;2023-01-28T07:47:34;-23947.31;;;4.68;100.00
7105;BME280;3594;42.152;24.714;2023-01-28T07:50:00;-23945.03;;;4.60;100.00
7105;BME280;3594;42.152;24.714;2023-01-28T07:52:25;-23955.13;;;4.96;100.00
7105;BME280;3594;42.152;24.714;2023-01-28T07:54:50;-23951.72;;;4.84;100.00
7105;BME280;3594;42.152;24.714;2023-01-28T07:57:16;-23948.72;;;4.73;100.00
7105;BME280;3594;42.152;24.714;2023-01-28T07:59:48;-23958.25;;;5.07;100.00
7105;BME280;3594;42.152;24.714;2023-01-28T08:02:15;-23956.84;;;5.02;100.00
7105;BME280;3594;42.152;24.714;2023-01-28T08:04:41;-23962.38;;;5.22;100.00
7105;BME280;3594;42.152;24.714;2023-01-28T08:07:06;-23973.34;;;5.61;100.00
7105;BME280;3594;42.152;24.714;2023-01-28T08:09:32;-23982.44;;;5.93;100.00
7105;BME280;3594;42.152;24.714;2023-01-28T08:12:00;-23966.66;;;5.37;100.00
7105;BME280;3594;42.152;24.714;2023-01-28T08:14:26;-23985.56;;;6.04;100.00
7105;BME280;3594;42.152;24.714;2023-01-28T08:16:51;-23971.63;;;5.55;100.00
7105;BME280;3594;42.152;24.714;2023-01-28T08:19:17;-23982.72;;;5.94;100.00
7105;BME280;3594;42.152;24.714;2023-01-28T08:21:43;-23990.25;;;6.21;100.00
7105;BME280;3594;42.152;24.714;2023-01-28T08:24:08;-23994.50;;;6.36;100.00
7105;BME280;3594;42.152;24.714;2023-01-28T08:26:34;-23995.22;;;6.39;100.00
7105;BME280;3594;42.152;24.714;2023-01-28T08:28:59;-23991.81;;;6.27;100.00
7105;BME280;3594;42.152;24.714;2023-01-28T08:31:26;-24002.03;;;6.63;100.00
7105;BME280;3594;42.152;24.714;2023-01-28T08:33:53;-23990.53;;;6.22;100.00
7105;BME280;3594;42.152;24.714;2023-01-28T08:36:19;-23994.94;;;6.38;100.00
7105;BME280;3594;42.152;24.714;2023-01-28T08:38:45;-23979.00;;;5.81;100.00
7105;BME280;3594;42.152;24.714;2023-01-28T08:41:10;-23982.72;;;5.94;100.00
7105;BME280;3594;42.152;24.714;2023-01-28T08:43:36;-23986.25;;;6.07;100.00
7105;BME280;3594;42.152;24.714;2023-01-28T08:46:04;-23991.66;;;6.26;100.00
7105;BME280;3594;42.152;24.714;2023-01-28T08:48:30;-23986.84;;;6.09;100.00
7105;BME280;3594;42.152;24.714;2023-01-28T08:50:57;-23989.38;;;6.18;100.00
7105;BME280;3594;42.152;24.714;2023-01-28T08:53:23;-23979.88;;;5.84;100.00
7105;BME280;3594;42.152;24.714;2023-01-28T08:55:49;-23972.91;;;5.59;100.00
7105;BME280;3594;42.152;24.714;2023-01-28T08:58:16;-23973.91;;;5.63;100.00
7105;BME280;3594;42.152;24.714;2023-01-28T09:00:43;-23986.13;;;6.06;100.00
7105;BME280;3594;42.152;24.714;2023-01-28T09:03:09;-23974.31;;;5.64;100.00
7105;BME280;3594;42.152;24.714;2023-01-28T09:05:35;-23982.44;;;5.93;100.00
7105;BME280;3594;42.152;24.714;2023-01-28T09:08:06;-23980.44;;;5.86;100.00
7105;BME280;3594;42.152;24.714;2023-01-28T09:10:32;-23968.78;;;5.45;100.00
7105;BME280;3594;42.152;24.714;2023-01-28T09:12:58;-23968.06;;;5.42;100.00
7105;BME280;3594;42.152;24.714;2023-01-28T09:15:28;-23966.38;;;5.36;100.00
7105;BME280;3594;42.152;24.714;2023-01-28T09:17:57;-23970.78;;;5.52;100.00
7105;BME280;3594;42.152;24.714;2023-01-28T09:20:23;-23979.44;;;5.83;100.00
7105;BME280;3594;42.152;24.714;2023-01-28T09:22:48;-23977.16;;;5.74;100.00
7105;BME280;3594;42.152;24.714;2023-01-28T09:25:14;-23973.19;;;5.60;100.00
7105;BME280;3594;42.152;24.714;2023-01-28T09:27:39;-23980.28;;;5.86;100.00
7105;BME280;3594;42.152;24.714;2023-01-28T09:30:05;-23973.63;;;5.62;100.00
7105;BME280;3594;42.152;24.714;2023-01-28T09:32:31;-23982.72;;;5.94;100.00
7105;BME280;3594;42.152;24.714;2023-01-28T09:34:56;-23989.25;;;6.17;100.00
7105;BME280;3594;42.152;24.714;2023-01-28T09:37:21;-23985.41;;;6.04;100.00
7105;BME280;3594;42.152;24.714;2023-01-28T09:39:47;-23995.50;;;6.40;100.00
7105;BME280;3594;42.152;24.714;2023-01-28T09:45:30;-24013.22;;;7.03;100.00
7105;BME280;3594;42.152;24.714;2023-01-28T09:47:53;-24019.03;;;7.24;100.00
7105;BME280;3594;42.152;24.714;2023-01-28T09:50:30;-24015.66;;;7.12;100.00
7105;BME280;3594;42.152;24.714;2023-01-28T09:53:02;-24020.03;;;7.27;100.00
7105;BME280;3594;42.152;24.714;2023-01-28T09:55:32;-24017.91;;;7.20;100.00
7105;BME280;3594;42.152;24.714;2023-01-28T09:57:59;-24031.09;;;7.67;100.00
7105;BME280;3594;42.152;24.714;2023-01-28T10:09:22;-24022.88;;;7.37;100.00
7105;BME280;3594;42.152;24.714;2023-01-28T10:11:56;-24027.69;;;7.54;100.00
7105;BME280;3594;42.152;24.714;2023-01-28T10:17:25;-24027.69;;;7.54;100.00
7105;BME280;3594;42.152;24.714;2023-01-28T10:20:07;-24018.06;;;7.20;100.00
7105;BME280;3594;42.152;24.714;2023-01-28T10:22:43;-24022.31;;;7.35;100.00
7105;BME280;3594;42.152;24.714;2023-01-28T10:25:20;-24020.03;;;7.27;100.00
7105;BME280;3594;42.152;24.714;2023-01-28T10:27:48;-24014.50;;;7.07;100.00
7105;BME280;3594;42.152;24.714;2023-01-28T10:30:23;-24018.47;;;7.22;100.00
7105;BME280;3594;42.152;24.714;2023-01-28T10:32:56;-24010.13;;;6.92;100.00
7105;BME280;3594;42.152;24.714;2023-01-28T10:35:24;-24015.34;;;7.10;100.00
7105;BME280;3594;42.152;24.714;2023-01-28T10:38:00;-24008.56;;;6.86;100.00
7105;BME280;3594;42.152;24.714;2023-01-28T10:40:26;-24011.38;;;6.96;100.00
7105;BME280;3594;42.152;24.714;2023-01-28T10:42:52;-24026.28;;;7.49;100.00
7105;BME280;3594;42.152;24.714;2023-01-28T10:50:27;-24014.94;;;7.09;100.00
7105;BME280;3594;42.152;24.714;2023-01-28T10:55:20;-24013.09;;;7.02;100.00
7105;BME280;3594;42.152;24.714;2023-01-28T10:57:45;-24021.59;;;7.33;100.00
7105;BME280;3594;42.152;24.714;2023-01-28T11:00:34;-24017.06;;;7.17;100.00
7105;BME280;3594;42.152;24.714;2023-01-28T11:03:01;-24012.09;;;6.99;100.00
7105;BME280;3594;42.152;24.714;2023-01-28T11:05:28;-24025.00;;;7.45;100.00
7105;BME280;3594;42.152;24.714;2023-01-28T11:08:21;-24026.97;;;7.52;100.00
7105;BME280;3594;42.152;24.714;2023-01-28T11:10:47;-24036.63;;;7.86;100.00
7105;BME280;3594;42.152;24.714;2023-01-28T11:13:19;-24026.13;;;7.49;100.00
7105;BME280;3594;42.152;24.714;2023-01-28T11:15:46;-24023.72;;;7.40;100.00
7105;BME280;3594;42.152;24.714;2023-01-28T11:18:24;-24023.31;;;7.39;100.00
7105;BME280;3594;42.152;24.714;2023-01-28T11:20:56;-24028.97;;;7.59;100.00
7105;BME280;3594;42.152;24.714;2023-01-28T11:23:26;-24031.25;;;7.67;100.00
7105;BME280;3594;42.152;24.714;2023-01-28T11:26:04;-24031.53;;;7.68;100.00
7105;BME280;3594;42.152;24.714;2023-01-28T11:28:31;-24032.09;;;7.70;100.00
7105;BME280;3594;42.152;24.714;2023-01-28T11:30:58;-24025.72;;;7.47;100.00
7105;BME280;3594;42.152;24.714;2023-01-28T11:33:32;-24021.88;;;7.34;100.00
7105;BME280;3594;42.152;24.714;2023-01-28T11:36:13;-24014.50;;;7.07;100.00
7105;BME280;3594;42.152;24.714;2023-01-28T11:38:51;-24013.94;;;7.05;100.00
7105;BME280;3594;42.152;24.714;2023-01-28T11:41:22;-24010.81;;;6.94;100.00
7105;BME280;3594;42.152;24.714;2023-01-28T11:43:49;-24006.00;;;6.77;100.00
7105;BME280;3594;42.152;24.714;2023-01-28T11:49:00;-24007.69;;;6.83;100.00
7105;BME280;3594;42.152;24.714;2023-01-28T12:16:12;-23994.94;;;6.38;100.00
7105;BME280;3594;42.152;24.714;2023-01-28T12:24:02;-23993.38;;;6.32;100.00
7105;BME280;3594;42.152;24.714;2023-01-28T12:26:49;-23989.69;;;6.19;100.00
7105;BME280;3594;42.152;24.714;2023-01-28T12:37:40;-23985.84;;;6.05;100.00
7105;BME280;3594;42.152;24.714;2023-01-28T12:45:17;-23979.88;;;5.84;100.00
7105;BME280;3594;42.152;24.714;2023-01-28T12:47:50;-23976.16;;;5.71;100.00
7105;BME280;3594;42.152;24.714;2023-01-28T12:50:23;-23967.66;;;5.41;100.00
7105;BME280;3594;42.152;24.714;2023-01-28T12:52:54;-23962.09;;;5.21;100.00
7105;BME280;3594;42.152;24.714;2023-01-28T12:55:41;-23973.75;;;5.62;100.00
7105;BME280;3594;42.152;24.714;2023-01-28T12:58:24;-23958.81;;;5.09;100.00
7105;BME280;3594;42.152;24.714;2023-01-28T13:01:00;-23953.13;;;4.89;100.00
7105;BME280;3594;42.152;24.714;2023-01-28T13:03:40;-23957.97;;;5.06;100.00
7105;BME280;3594;42.152;24.714;2023-01-28T13:07:13;-23968.50;;;5.44;100.00
7105;BME280;3594;42.152;24.714;2023-01-28T13:09:19;-23965.22;;;5.32;100.00
7105;BME280;3594;42.152;24.714;2023-01-28T13:11:47;-23969.78;;;5.48;100.00
7105;BME280;3594;42.152;24.714;2023-01-28T13:14:13;-23970.34;;;5.50;100.00
7105;BME280;3594;42.152;24.714;2023-01-28T13:16:39;-23959.69;;;5.12;100.00
7105;BME280;3594;42.152;24.714;2023-01-28T13:19:24;-23964.94;;;5.31;100.00
7105;BME280;3594;42.152;24.714;2023-01-28T13:22:21;-23960.53;;;5.15;100.00
7105;BME280;3594;42.152;24.714;2023-01-28T13:24:50;-23969.78;;;5.48;100.00
7105;BME280;3594;42.152;24.714;2023-01-28T13:27:26;-23973.03;;;5.60;100.00
7105;BME280;3594;42.152;24.714;2023-01-28T13:30:02;-23971.75;;;5.55;100.00
7105;BME280;3594;42.152;24.714;2023-01-28T13:32:31;-23962.38;;;5.22;100.00
7105;BME280;3594;42.152;24.714;2023-01-28T13:35:00;-23963.66;;;5.26;100.00
7105;BME280;3594;42.152;24.714;2023-01-28T13:37:36;-23958.81;;;5.09;100.00
7105;BME280;3594;42.152;24.714;2023-01-28T13:42:37;-23956.00;;;4.99;100.00
7105;BME280;3594;42.152;24.714;2023-01-28T13:47:44;-23948.88;;;4.74;100.00
7105;BME280;3594;42.152;24.714;2023-01-28T13:50:14;-23957.97;;;5.06;100.00
7105;BME280;3594;42.152;24.714;2023-01-28T13:52:55;-23961.25;;;5.18;100.00
7105;BME280;3594;42.152;24.714;2023-01-28T13:55:26;-23959.13;;;5.10;100.00
7105;BME280;3594;42.152;24.714;2023-01-28T14:01:16;-23952.84;;;4.88;100.00
7105;BME280;3594;42.152;24.714;2023-01-28T14:09:28;-23945.88;;;4.63;100.00
7105;BME280;3594;42.152;24.714;2023-01-28T14:17:52;-23951.72;;;4.84;100.00
7105;BME280;3594;42.152;24.714;2023-01-28T14:20:22;-23938.19;;;4.36;100.00
7105;BME280;3594;42.152;24.714;2023-01-28T14:22:50;-23944.03;;;4.57;100.00
7105;BME280;3594;42.152;24.714;2023-01-28T14:25:27;-23950.16;;;4.78;100.00
7105;BME280;3594;42.152;24.714;2023-01-28T14:27:54;-23942.03;;;4.50;100.00
7105;BME280;3594;42.152;24.714;2023-01-28T14:31:13;-23953.72;;;4.91;100.00
7105;BME280;3594;42.152;24.714;2023-01-28T14:33:20;-23945.16;;;4.61;100.00
7105;BME280;3594;42.152;24.714;2023-01-28T14:35:47;-23950.16;;;4.78;100.00
7105;BME280;3594;42.152;24.714;2023-01-28T14:38:18;-23949.59;;;4.76;100.00
7105;BME280;3594;42.152;24.714;2023-01-28T14:40:48;-23952.56;;;4.87;100.00
7105;BME280;3594;42.152;24.714;2023-01-28T14:43:18;-23942.31;;;4.51;100.00
7105;BME280;3594;42.152;24.714;2023-01-28T14:51:15;-23957.53;;;5.05;100.00
7105;BME280;3594;42.152;24.714;2023-01-28T14:53:48;-23956.84;;;5.02;100.00
7105;BME280;3594;42.152;24.714;2023-01-28T14:59:18;-23952.16;;;4.85;100.00
7105;BME280;3594;42.152;24.714;2023-01-28T15:01:47;-23948.16;;;4.71;100.00
7105;BME280;3594;42.152;24.714;2023-01-28T15:04:39;-23944.88;;;4.60;100.00
7105;BME280;3594;42.152;24.714;2023-01-28T15:07:22;-23941.47;;;4.48;100.00
7105;BME280;3594;42.152;24.714;2023-01-28T15:12:40;-23948.03;;;4.71;100.00
7105;BME280;3594;42.152;24.714;2023-01-28T15:15:28;-23957.41;;;5.04;100.00